PWSweather.com
Personal Weather Stations
Station Observations
J24K28P63
Vysocina, PocatkyCZ 39464

VysocinaPocatkyCZ 39464

Lat: 49.2594238, Lon: 15.2331769

Elevation: 2011

Station Type: Vantage Pro2+

http://meteo-jirkalina.com

High Low Average
Temperature 76.2°F24.6°C 47.4°F8.6°C 63.8°F17.7°C
Dew Point 50.1°F10.1°C 24.6°F-4.1°C 42.4°F5.8°C
Winds 18.5 mph 29.8 kmh Calm Calm 8.0 mph ESE12.9 kmh ESE
Wind Gusts 27.0 mph43.5 kmh -- 12.0 mph19.3 kmh
Humidity 90% 25% 49%
Pressure 30.13 in1020.3 mb 30.00 in1015.9 mb -
Precipitation 0.00 in0.0 mm - -
Hour Temp Dew Point Humidity Winds Wind Gusts Pressure Precip Precip Rate Daily Precip Total
12:00 AM 54.8°F12.7°C 41.6°F5.3°C 61% 9.1 mph SE14.6 kmh SE 15.0 mph24.1 kmh 30.13 in1020.3 mb - 0.00 in0.0 mm 0.00 in0.0 mm
12:30 AM 54.5°F12.5°C 42.2°F5.7°C 63% 8.6 mph SE13.8 kmh SE 18.0 mph29.0 kmh 30.13 in1020.3 mb - 0.00 in0.0 mm 0.00 in0.0 mm
01:00 AM 54.4°F12.4°C 42.1°F5.6°C 63% 12.9 mph SE20.8 kmh SE 17.0 mph27.4 kmh 30.12 in1020.0 mb - 0.00 in0.0 mm 0.00 in0.0 mm
01:30 AM 54.1°F12.3°C 42.2°F5.7°C 64% 7.2 mph ESE11.6 kmh ESE 10.0 mph16.1 kmh 30.12 in1020.0 mb - 0.00 in0.0 mm 0.00 in0.0 mm
02:00 AM 53.6°F12.0°C 42.9°F6.1°C 67% 9.2 mph SE14.8 kmh SE 11.0 mph17.7 kmh 30.12 in1020.0 mb - 0.00 in0.0 mm 0.00 in0.0 mm
02:30 AM 53.6°F12.0°C 42.9°F6.1°C 67% 12.9 mph SE20.8 kmh SE 15.0 mph24.1 kmh 30.10 in1019.3 mb - 0.00 in0.0 mm 0.00 in0.0 mm
03:00 AM 53.2°F11.8°C 42.9°F6.1°C 68% 10.4 mph SE16.7 kmh SE 13.0 mph20.9 kmh 30.11 in1019.6 mb - 0.00 in0.0 mm 0.00 in0.0 mm
03:30 AM 53.1°F11.7°C 42.8°F6.0°C 68% 9.9 mph ESE15.9 kmh ESE 18.0 mph29.0 kmh 30.10 in1019.3 mb - 0.00 in0.0 mm 0.00 in0.0 mm
04:00 AM 52.8°F11.6°C 42.5°F5.8°C 68% 11.8 mph ESE19.0 kmh ESE 18.0 mph29.0 kmh 30.09 in1019.0 mb - 0.00 in0.0 mm 0.00 in0.0 mm
04:30 AM 52.8°F11.6°C 42.2°F5.7°C 67% 12.8 mph ESE20.6 kmh ESE 19.0 mph30.6 kmh 30.09 in1019.0 mb - 0.00 in0.0 mm 0.00 in0.0 mm
05:00 AM 53.1°F11.7°C 41.2°F5.1°C 64% 10.4 mph E16.7 kmh E 16.0 mph25.7 kmh 30.09 in1019.0 mb - 0.00 in0.0 mm 0.00 in0.0 mm
05:30 AM 53.1°F11.7°C 41.2°F5.1°C 64% 13.3 mph ESE21.4 kmh ESE 22.0 mph35.4 kmh 30.08 in1018.6 mb - 0.00 in0.0 mm 0.00 in0.0 mm
06:00 AM 52.9°F11.6°C 40.2°F4.6°C 62% 12.0 mph SSE19.3 kmh SSE 22.0 mph35.4 kmh 30.07 in1018.3 mb - 0.00 in0.0 mm 0.00 in0.0 mm
06:30 AM 52.5°F11.4°C 39.8°F4.3°C 62% 9.9 mph SSE15.9 kmh SSE 14.0 mph22.5 kmh 30.07 in1018.3 mb - 0.00 in0.0 mm 0.00 in0.0 mm
06:40 AM 47.5°F8.6°C 44.1°F6.7°C 88% 1.0 mph E1.6 kmh E 1.0 mph1.6 kmh 30.11 in1019.6 mb - 0.00 in0.0 mm 0.00 in0.0 mm
06:50 AM 47.4°F8.6°C 44.3°F6.8°C 89% Calm Calm 1.0 mph1.6 kmh 30.11 in1019.6 mb - 0.00 in0.0 mm 0.00 in0.0 mm
07:00 AM 47.6°F8.7°C 44.8°F7.1°C 90% Calm Calm 1.0 mph1.6 kmh 30.11 in1019.6 mb - 0.00 in0.0 mm 0.00 in0.0 mm
07:10 AM 48.3°F9.1°C 45.5°F7.5°C 90% 1.0 mph E1.6 kmh E 2.0 mph3.2 kmh 30.11 in1019.6 mb - 0.00 in0.0 mm 0.00 in0.0 mm
07:20 AM 49.5°F9.7°C 46.4°F8.0°C 89% 1.0 mph E1.6 kmh E 3.0 mph4.8 kmh 30.11 in1019.6 mb - 0.00 in0.0 mm 0.00 in0.0 mm
07:30 AM 53.5°F11.9°C 39.5°F4.2°C 59% 12.7 mph SSE20.4 kmh SSE 17.0 mph27.4 kmh 30.07 in1018.3 mb - 0.00 in0.0 mm 0.00 in0.0 mm
07:40 AM 52.1°F11.2°C 47.7°F8.7°C 85% Calm Calm 2.0 mph3.2 kmh 30.11 in1019.6 mb - 0.00 in0.0 mm 0.00 in0.0 mm
07:50 AM 53.4°F11.9°C 48.1°F8.9°C 82% 2.0 mph E3.2 kmh E 3.0 mph4.8 kmh 30.11 in1019.6 mb - 0.00 in0.0 mm 0.00 in0.0 mm
08:00 AM 54.4°F12.4°C 48.0°F8.9°C 79% Calm Calm -- 30.11 in1019.6 mb - 0.00 in0.0 mm 0.00 in0.0 mm
08:10 AM 55.0°F12.8°C 48.3°F9.1°C 78% Calm Calm 1.0 mph1.6 kmh 30.11 in1019.6 mb - 0.00 in0.0 mm 0.00 in0.0 mm
08:20 AM 55.6°F13.1°C 48.5°F9.2°C 77% 1.0 mph E1.6 kmh E 2.0 mph3.2 kmh 30.11 in1019.6 mb - 0.00 in0.0 mm 0.00 in0.0 mm
08:30 AM 56.3°F13.5°C 38.4°F3.6°C 51% 11.1 mph SSE17.9 kmh SSE 17.0 mph27.4 kmh 30.07 in1018.3 mb - 0.00 in0.0 mm 0.00 in0.0 mm
08:40 AM 59.1°F15.1°C 49.8°F9.9°C 71% 5.0 mph E8.0 kmh E 7.0 mph11.3 kmh 30.10 in1019.3 mb - 0.00 in0.0 mm 0.00 in0.0 mm
08:50 AM 60.5°F15.8°C 49.5°F9.7°C 67% 3.0 mph E4.8 kmh E 3.0 mph4.8 kmh 30.10 in1019.3 mb - 0.00 in0.0 mm 0.00 in0.0 mm
09:00 AM 61.5°F16.4°C 49.6°F9.8°C 65% 6.0 mph E9.7 kmh E 12.0 mph19.3 kmh 30.09 in1019.0 mb - 0.00 in0.0 mm 0.00 in0.0 mm
09:10 AM 62.5°F16.9°C 49.7°F9.8°C 63% 6.0 mph E9.7 kmh E 7.0 mph11.3 kmh 30.09 in1019.0 mb - 0.00 in0.0 mm 0.00 in0.0 mm
09:20 AM 63.2°F17.3°C 49.5°F9.7°C 61% 9.0 mph ENE14.5 kmh ENE 15.0 mph24.1 kmh 30.09 in1019.0 mb - 0.00 in0.0 mm 0.00 in0.0 mm
09:30 AM 59.0°F15.0°C 38.2°F3.4°C 46% 9.3 mph SE15.0 kmh SE 11.0 mph17.7 kmh 30.07 in1018.3 mb - 0.00 in0.0 mm 0.00 in0.0 mm
09:40 AM 64.5°F18.1°C 49.9°F9.9°C 59% 9.0 mph E14.5 kmh E 15.0 mph24.1 kmh 30.09 in1019.0 mb - 0.00 in0.0 mm 0.00 in0.0 mm
09:50 AM 65.5°F18.6°C 49.9°F9.9°C 57% 5.0 mph E8.0 kmh E 8.0 mph12.9 kmh 30.09 in1019.0 mb - 0.00 in0.0 mm 0.00 in0.0 mm
10:00 AM 66.8°F19.3°C 50.1°F10.1°C 55% 5.0 mph E8.0 kmh E 9.0 mph14.5 kmh 30.09 in1019.0 mb - 0.00 in0.0 mm 0.00 in0.0 mm
10:10 AM 67.7°F19.8°C 49.9°F9.9°C 53% 7.0 mph E11.3 kmh E 9.0 mph14.5 kmh 30.08 in1018.6 mb - 0.00 in0.0 mm 0.00 in0.0 mm
10:20 AM 68.8°F20.4°C 49.9°F9.9°C 51% 7.0 mph E11.3 kmh E 10.0 mph16.1 kmh 30.08 in1018.6 mb - 0.00 in0.0 mm 0.00 in0.0 mm
10:30 AM 62.9°F17.2°C 35.5°F1.9°C 36% 12.2 mph E19.6 kmh E 22.0 mph35.4 kmh 30.06 in1017.9 mb - 0.00 in0.0 mm 0.00 in0.0 mm
10:40 AM 70.5°F21.4°C 49.9°F9.9°C 48% 5.0 mph ENE8.0 kmh ENE 7.0 mph11.3 kmh 30.07 in1018.3 mb - 0.00 in0.0 mm 0.00 in0.0 mm
10:50 AM 71.3°F21.8°C 50.0°F10.0°C 47% 6.0 mph E9.7 kmh E 10.0 mph16.1 kmh 30.07 in1018.3 mb - 0.00 in0.0 mm 0.00 in0.0 mm
11:00 AM 72.4°F22.4°C 48.6°F9.2°C 43% 7.0 mph ESE11.3 kmh ESE 12.0 mph19.3 kmh 30.06 in1017.9 mb - 0.00 in0.0 mm 0.00 in0.0 mm
11:10 AM 74.0°F23.3°C 48.8°F9.3°C 41% 5.0 mph E8.0 kmh E 10.0 mph16.1 kmh 30.06 in1017.9 mb - 0.00 in0.0 mm 0.00 in0.0 mm
11:20 AM 74.2°F23.4°C 47.6°F8.7°C 39% 5.0 mph SE8.0 kmh SE 10.0 mph16.1 kmh 30.06 in1017.9 mb - 0.00 in0.0 mm 0.00 in0.0 mm
11:30 AM 65.0°F18.3°C 32.8°F0.4°C 30% 18.5 mph SE29.8 kmh SE 22.0 mph35.4 kmh 30.05 in1017.6 mb - 0.00 in0.0 mm 0.00 in0.0 mm
11:40 AM 74.7°F23.7°C 47.4°F8.6°C 38% 7.0 mph SE11.3 kmh SE 14.0 mph22.5 kmh 30.05 in1017.6 mb - 0.00 in0.0 mm 0.00 in0.0 mm
11:50 AM 74.6°F23.7°C 47.3°F8.5°C 38% 6.0 mph E9.7 kmh E 8.0 mph12.9 kmh 30.05 in1017.6 mb - 0.00 in0.0 mm 0.00 in0.0 mm
12:00 PM 74.9°F23.8°C 46.9°F8.3°C 37% 7.0 mph SE11.3 kmh SE 16.0 mph25.7 kmh 30.04 in1017.3 mb - 0.00 in0.0 mm 0.00 in0.0 mm
12:10 PM 75.0°F23.9°C 47.0°F8.3°C 37% 7.0 mph SE11.3 kmh SE 15.0 mph24.1 kmh 30.04 in1017.3 mb - 0.00 in0.0 mm 0.00 in0.0 mm
12:20 PM 75.2°F24.0°C 47.1°F8.4°C 37% 7.0 mph S11.3 kmh S 9.0 mph14.5 kmh 30.04 in1017.3 mb - 0.00 in0.0 mm 0.00 in0.0 mm
12:30 PM 66.8°F19.3°C 30.8°F-0.7°C 26% 17.2 mph E27.7 kmh E 27.0 mph43.5 kmh 30.04 in1017.3 mb - 0.00 in0.0 mm 0.00 in0.0 mm
12:40 PM 75.5°F24.2°C 47.4°F8.6°C 37% 8.0 mph E12.9 kmh E 12.0 mph19.3 kmh 30.03 in1016.9 mb - 0.00 in0.0 mm 0.00 in0.0 mm
12:50 PM 75.4°F24.1°C 47.3°F8.5°C 37% 7.0 mph SE11.3 kmh SE 13.0 mph20.9 kmh 30.03 in1016.9 mb - 0.00 in0.0 mm 0.00 in0.0 mm
01:00 PM 75.8°F24.3°C 47.7°F8.7°C 37% 3.0 mph SE4.8 kmh SE 3.0 mph4.8 kmh 30.02 in1016.6 mb - 0.00 in0.0 mm 0.00 in0.0 mm
01:10 PM 75.7°F24.3°C 47.6°F8.7°C 37% 6.0 mph E9.7 kmh E 10.0 mph16.1 kmh 30.02 in1016.6 mb - 0.00 in0.0 mm 0.00 in0.0 mm
01:20 PM 76.0°F24.4°C 47.8°F8.8°C 37% 3.0 mph E4.8 kmh E 12.0 mph19.3 kmh 30.02 in1016.6 mb - 0.00 in0.0 mm 0.00 in0.0 mm
01:30 PM 66.8°F19.3°C 31.7°F-0.2°C 27% 12.8 mph SE20.6 kmh SE 19.0 mph30.6 kmh 30.03 in1016.9 mb - 0.00 in0.0 mm 0.00 in0.0 mm
01:40 PM 75.7°F24.3°C 47.6°F8.7°C 37% 9.0 mph ESE14.5 kmh ESE 14.0 mph22.5 kmh 30.01 in1016.3 mb - 0.00 in0.0 mm 0.00 in0.0 mm
01:50 PM 75.8°F24.3°C 48.4°F9.1°C 38% 6.0 mph SE9.7 kmh SE 13.0 mph20.9 kmh 30.01 in1016.3 mb - 0.00 in0.0 mm 0.00 in0.0 mm
02:00 PM 76.2°F24.6°C 48.0°F8.9°C 37% 5.0 mph SE8.0 kmh SE 12.0 mph19.3 kmh 30.01 in1016.3 mb - 0.00 in0.0 mm 0.00 in0.0 mm
02:10 PM 76.0°F24.4°C 47.8°F8.8°C 37% 8.0 mph ENE12.9 kmh ENE 12.0 mph19.3 kmh 30.01 in1016.3 mb - 0.00 in0.0 mm 0.00 in0.0 mm
02:20 PM 75.9°F24.4°C 47.7°F8.7°C 37% 7.0 mph ESE11.3 kmh ESE 14.0 mph22.5 kmh 30.01 in1016.3 mb - 0.00 in0.0 mm 0.00 in0.0 mm
02:30 PM 76.0°F24.4°C 47.1°F8.4°C 36% 7.0 mph SE11.3 kmh SE 12.0 mph19.3 kmh 30.01 in1016.3 mb - 0.00 in0.0 mm 0.00 in0.0 mm
02:40 PM 76.2°F24.6°C 46.5°F8.1°C 35% 7.0 mph SE11.3 kmh SE 12.0 mph19.3 kmh 30.01 in1016.3 mb - 0.00 in0.0 mm 0.00 in0.0 mm
02:50 PM 76.1°F24.5°C 46.5°F8.1°C 35% 9.0 mph SE14.5 kmh SE 16.0 mph25.7 kmh 30.01 in1016.3 mb - 0.00 in0.0 mm 0.00 in0.0 mm
03:00 PM 76.0°F24.4°C 46.4°F8.0°C 35% 5.0 mph ESE8.0 kmh ESE 7.0 mph11.3 kmh 30.01 in1016.3 mb - 0.00 in0.0 mm 0.00 in0.0 mm
03:10 PM 75.8°F24.3°C 46.2°F7.9°C 35% 8.0 mph SE12.9 kmh SE 16.0 mph25.7 kmh 30.00 in1015.9 mb - 0.00 in0.0 mm 0.00 in0.0 mm
03:20 PM 75.6°F24.2°C 46.0°F7.8°C 35% 7.0 mph ESE11.3 kmh ESE 12.0 mph19.3 kmh 30.00 in1015.9 mb - 0.00 in0.0 mm 0.00 in0.0 mm
03:30 PM 75.2°F24.0°C 46.4°F8.0°C 36% 8.0 mph ESE12.9 kmh ESE 13.0 mph20.9 kmh 30.00 in1015.9 mb - 0.00 in0.0 mm 0.00 in0.0 mm
03:40 PM 74.9°F23.8°C 46.1°F7.8°C 36% 3.0 mph ESE4.8 kmh ESE 9.0 mph14.5 kmh 30.00 in1015.9 mb - 0.00 in0.0 mm 0.00 in0.0 mm
03:50 PM 74.7°F23.7°C 45.9°F7.7°C 36% 3.0 mph S4.8 kmh S 8.0 mph12.9 kmh 30.00 in1015.9 mb - 0.00 in0.0 mm 0.00 in0.0 mm
04:00 PM 63.2°F17.3°C 26.8°F-2.9°C 25% 11.1 mph E17.9 kmh E 16.0 mph25.7 kmh 30.02 in1016.6 mb - 0.00 in0.0 mm 0.00 in0.0 mm
04:10 PM 73.7°F23.2°C 46.5°F8.1°C 38% 3.0 mph ESE4.8 kmh ESE 7.0 mph11.3 kmh 30.00 in1015.9 mb - 0.00 in0.0 mm 0.00 in0.0 mm
04:20 PM 73.2°F22.9°C 46.0°F7.8°C 38% 3.0 mph SSE4.8 kmh SSE 9.0 mph14.5 kmh 30.01 in1016.3 mb - 0.00 in0.0 mm 0.00 in0.0 mm
04:30 PM 72.6°F22.6°C 46.2°F7.9°C 39% 2.0 mph SE3.2 kmh SE 8.0 mph12.9 kmh 30.01 in1016.3 mb - 0.00 in0.0 mm 0.00 in0.0 mm
04:40 PM 71.4°F21.9°C 45.8°F7.7°C 40% 5.0 mph E8.0 kmh E 9.0 mph14.5 kmh 30.01 in1016.3 mb - 0.00 in0.0 mm 0.00 in0.0 mm
04:50 PM 70.6°F21.4°C 45.7°F7.6°C 41% 3.0 mph SE4.8 kmh SE 8.0 mph12.9 kmh 30.01 in1016.3 mb - 0.00 in0.0 mm 0.00 in0.0 mm
05:00 PM 70.2°F21.2°C 45.4°F7.4°C 41% 5.0 mph E8.0 kmh E 8.0 mph12.9 kmh 30.01 in1016.3 mb - 0.00 in0.0 mm 0.00 in0.0 mm
05:30 PM 59.9°F15.5°C 25.8°F-3.4°C 27% 9.9 mph ENE15.9 kmh ENE 16.0 mph25.7 kmh 30.02 in1016.6 mb - 0.00 in0.0 mm 0.00 in0.0 mm
06:00 PM 59.5°F15.3°C 26.3°F-3.2°C 28% 16.4 mph SE26.4 kmh SE 21.0 mph33.8 kmh 30.02 in1016.6 mb - 0.00 in0.0 mm 0.00 in0.0 mm
06:30 PM 59.0°F15.0°C 25.9°F-3.4°C 28% 10.4 mph E16.7 kmh E 15.0 mph24.1 kmh 30.02 in1016.6 mb - 0.00 in0.0 mm 0.00 in0.0 mm
07:00 PM 58.7°F14.8°C 25.6°F-3.6°C 28% 15.7 mph ESE25.3 kmh ESE 22.0 mph35.4 kmh 30.03 in1016.9 mb - 0.00 in0.0 mm 0.00 in0.0 mm
07:30 PM 58.4°F14.7°C 25.4°F-3.7°C 28% 11.0 mph ESE17.7 kmh ESE 16.0 mph25.7 kmh 30.03 in1016.9 mb - 0.00 in0.0 mm 0.00 in0.0 mm
08:00 PM 58.1°F14.5°C 25.1°F-3.8°C 28% 15.5 mph SE24.9 kmh SE 18.0 mph29.0 kmh 30.03 in1016.9 mb - 0.00 in0.0 mm 0.00 in0.0 mm
08:30 PM 57.5°F14.2°C 24.6°F-4.1°C 28% 13.3 mph SE21.4 kmh SE 20.0 mph32.2 kmh 30.03 in1016.9 mb - 0.00 in0.0 mm 0.00 in0.0 mm
09:00 PM 56.7°F13.7°C 25.6°F-3.6°C 30% 12.0 mph SE19.3 kmh SE 21.0 mph33.8 kmh 30.02 in1016.6 mb - 0.00 in0.0 mm 0.00 in0.0 mm
09:30 PM 56.2°F13.4°C 26.7°F-2.9°C 32% 14.7 mph SE23.7 kmh SE 21.0 mph33.8 kmh 30.02 in1016.6 mb - 0.00 in0.0 mm 0.00 in0.0 mm
10:00 PM 55.7°F13.2°C 27.7°F-2.4°C 34% 10.4 mph ESE16.7 kmh ESE 17.0 mph27.4 kmh 30.02 in1016.6 mb - 0.00 in0.0 mm 0.00 in0.0 mm
10:30 PM 55.1°F12.8°C 27.9°F-2.3°C 35% 11.2 mph S18.0 kmh S 17.0 mph27.4 kmh 30.01 in1016.3 mb - 0.00 in0.0 mm 0.00 in0.0 mm
11:00 PM 54.8°F12.7°C 27.6°F-2.4°C 35% 15.4 mph ESE24.8 kmh ESE 21.0 mph33.8 kmh 30.01 in1016.3 mb - 0.00 in0.0 mm 0.00 in0.0 mm
11:30 PM 54.5°F12.5°C 27.4°F-2.6°C 35% 14.3 mph SE23.0 kmh SE 23.0 mph37.0 kmh 30.01 in1016.3 mb - 0.00 in0.0 mm 0.00 in0.0 mm